createdAt,value
2023-02-14T00:01:45.305Z,65.88
2023-02-14T00:04:14.499Z,65.91
2023-02-14T00:06:42.886Z,65.85
2023-02-14T00:09:12.716Z,65.72
2023-02-14T00:11:41.705Z,65.69
2023-02-14T00:27:06.476Z,65.37
2023-02-14T00:29:34.324Z,64.51
2023-02-14T00:32:01.939Z,64.37
2023-02-14T00:34:29.316Z,64.28
2023-02-14T00:36:59.983Z,64.25
2023-02-14T00:39:26.801Z,64.14
2023-02-14T00:41:53.960Z,64.00
2023-02-14T00:44:21.009Z,63.77
2023-02-14T00:46:47.833Z,63.65
2023-02-14T00:49:16.653Z,63.67
2023-02-14T00:51:43.901Z,63.50
2023-02-14T00:54:11.979Z,63.62
2023-02-14T00:56:39.411Z,63.55
2023-02-14T00:59:09.235Z,63.49
2023-02-14T01:01:36.048Z,63.44
2023-02-14T01:04:03.770Z,63.51
2023-02-14T01:06:30.898Z,63.46
2023-02-14T01:08:57.828Z,63.40
2023-02-14T01:11:27.454Z,63.46
2023-02-14T01:13:56.400Z,63.35
2023-02-14T01:16:24.360Z,63.12
2023-02-14T01:18:51.309Z,63.16
2023-02-14T01:21:25.315Z,63.12
2023-02-14T01:23:54.209Z,63.09
2023-02-14T01:26:22.858Z,62.96
2023-02-14T01:28:49.881Z,62.95
2023-02-14T01:31:22.360Z,62.99
2023-02-14T01:33:49.910Z,62.83
2023-02-14T01:36:23.456Z,62.79
2023-02-14T01:38:52.800Z,62.73
2023-02-14T01:41:20.127Z,62.70
2023-02-14T01:43:59.951Z,62.57
2023-02-14T01:46:31.796Z,62.64
2023-02-14T01:49:06.733Z,62.66
2023-02-14T01:51:34.456Z,62.64
2023-02-14T01:54:01.338Z,62.66
2023-02-14T01:56:32.111Z,62.66
2023-02-14T01:58:59.930Z,62.68
2023-02-14T02:01:27.029Z,62.70
2023-02-14T02:03:55.704Z,62.73
2023-02-14T02:06:30.712Z,62.65
2023-02-14T02:09:14.786Z,62.59
2023-02-14T02:11:42.002Z,62.96
2023-02-14T02:14:14.877Z,63.06
2023-02-14T02:16:47.680Z,63.18
2023-02-14T02:19:46.712Z,63.18
2023-02-14T02:22:25.480Z,63.28
2023-02-14T02:24:57.823Z,63.27
2023-02-14T02:27:28.960Z,63.24
2023-02-14T02:30:04.765Z,63.19
2023-02-14T02:32:47.261Z,63.16
2023-02-14T02:35:52.002Z,63.18
2023-02-14T02:38:51.851Z,63.27
2023-02-14T02:41:46.429Z,63.38
2023-02-14T02:44:31.393Z,63.36
2023-02-14T02:47:09.660Z,63.39
2023-02-14T02:50:04.616Z,63.41
2023-02-14T02:53:02.567Z,63.33
2023-02-14T02:56:04.363Z,63.40
2023-02-14T02:58:53.049Z,63.41
2023-02-14T03:01:24.427Z,63.07
2023-02-14T03:04:12.658Z,62.88
2023-02-14T03:06:41.415Z,62.99
2023-02-14T03:09:20.553Z,62.79
2023-02-14T03:12:13.084Z,62.71
2023-02-14T03:14:49.588Z,62.78
2023-02-14T03:17:24.805Z,62.87
2023-02-14T03:20:14.119Z,63.16
2023-02-14T03:22:53.300Z,63.26
2023-02-14T03:25:50.746Z,63.06
2023-02-14T03:28:22.413Z,63.23
2023-02-14T03:30:55.605Z,63.29
2023-02-14T03:33:30.437Z,63.36
2023-02-14T03:36:04.849Z,63.40
2023-02-14T03:38:57.100Z,63.85
2023-02-14T03:41:26.868Z,64.47
2023-02-14T03:43:58.834Z,65.30
2023-02-14T03:46:31.710Z,66.14
2023-02-14T03:48:59.876Z,66.76
2023-02-14T03:51:27.014Z,67.46
2023-02-14T03:53:56.062Z,68.15
2023-02-14T03:56:36.505Z,68.75
2023-02-14T03:59:15.099Z,69.31
2023-02-14T04:01:45.190Z,69.78
2023-02-14T04:04:12.130Z,70.26
2023-02-14T04:06:39.504Z,70.67
2023-02-14T04:09:06.362Z,70.92
2023-02-14T04:11:35.225Z,71.22
2023-02-14T04:14:02.765Z,71.41
2023-02-14T04:16:30.184Z,71.66
2023-02-14T04:19:35.862Z,71.74
2023-02-14T04:22:02.954Z,72.01
2023-02-14T04:24:31.549Z,72.06
2023-02-14T04:27:10.544Z,72.19
2023-02-14T04:29:40.654Z,72.32
2023-02-14T04:32:08.991Z,72.50
2023-02-14T04:34:36.805Z,72.48
2023-02-14T04:37:04.053Z,72.44
2023-02-14T04:39:31.732Z,72.40
2023-02-14T04:41:58.815Z,72.54
2023-02-14T04:44:25.689Z,72.57
2023-02-14T04:46:52.658Z,72.63
2023-02-14T04:49:19.557Z,72.63
2023-02-14T04:51:46.604Z,72.62
2023-02-14T04:54:15.587Z,72.47
2023-02-14T04:56:42.557Z,72.37
2023-02-14T04:59:09.616Z,72.15
2023-02-14T05:01:38.620Z,71.96
2023-02-14T05:04:10.145Z,71.87
2023-02-14T05:06:37.069Z,71.68
2023-02-14T05:09:06.109Z,71.52
2023-02-14T05:11:35.386Z,71.50
2023-02-14T05:14:02.637Z,71.48
2023-02-14T05:16:31.798Z,71.43
2023-02-14T05:18:59.339Z,71.32
2023-02-14T05:21:28.297Z,71.33
2023-02-14T05:23:55.606Z,71.36
2023-02-14T05:26:22.518Z,71.39
2023-02-14T05:28:49.573Z,71.62
2023-02-14T05:31:16.675Z,71.61
2023-02-14T05:33:43.764Z,71.51
2023-02-14T05:36:10.789Z,71.38
2023-02-14T05:38:37.802Z,71.39
2023-02-14T05:41:04.979Z,71.35
2023-02-14T05:43:31.989Z,71.41
2023-02-14T05:46:01.305Z,71.13
2023-02-14T05:48:28.511Z,71.06
2023-02-14T05:50:55.506Z,70.83
2023-02-14T05:53:23.300Z,70.65
2023-02-14T05:55:50.451Z,70.57
2023-02-14T05:58:18.049Z,70.44
2023-02-14T06:00:44.860Z,70.18
2023-02-14T06:03:11.992Z,70.07
2023-02-14T06:05:41.878Z,69.87
2023-02-14T06:08:09.022Z,69.91
2023-02-14T06:10:36.449Z,69.91
2023-02-14T06:13:08.500Z,69.80
2023-02-14T06:15:37.369Z,69.50
2023-02-14T06:18:04.845Z,69.25
2023-02-14T06:20:33.031Z,69.22
2023-02-14T06:23:00.089Z,69.03
2023-02-14T06:25:27.442Z,68.85
2023-02-14T06:27:57.820Z,68.68
2023-02-14T06:30:25.223Z,68.46
2023-02-14T06:32:52.827Z,68.40
2023-02-14T06:35:19.625Z,68.15
2023-02-14T06:37:46.872Z,67.98
2023-02-14T06:40:13.843Z,67.51
2023-02-14T06:42:41.592Z,66.76
2023-02-14T06:45:09.128Z,66.85
2023-02-14T06:47:36.278Z,66.82
2023-02-14T06:50:04.717Z,66.68
2023-02-14T06:52:33.006Z,66.29
2023-02-14T06:55:00.102Z,66.18
2023-02-14T06:57:27.111Z,65.96
2023-02-14T06:59:53.951Z,65.68
2023-02-14T07:02:23.547Z,65.55
2023-02-14T07:04:51.717Z,65.25
2023-02-14T07:07:18.725Z,64.94
2023-02-14T07:09:48.311Z,64.69
2023-02-14T07:12:15.484Z,64.50
2023-02-14T07:14:44.729Z,64.30
2023-02-14T07:17:12.017Z,64.24
2023-02-14T07:19:39.083Z,63.77
2023-02-14T07:22:06.146Z,63.20
2023-02-14T07:24:33.474Z,62.65
2023-02-14T07:27:01.571Z,63.29
2023-02-14T07:29:28.577Z,63.49
2023-02-14T07:31:57.622Z,63.66
2023-02-14T07:34:24.539Z,63.99
2023-02-14T07:36:51.289Z,64.06
2023-02-14T07:39:18.350Z,63.95
2023-02-14T07:41:45.532Z,63.94
2023-02-14T07:44:14.273Z,63.72
2023-02-14T07:46:41.950Z,63.22
2023-02-14T07:49:08.766Z,62.65
2023-02-14T07:51:36.575Z,62.04
2023-02-14T07:54:04.499Z,61.37
2023-02-14T07:56:31.929Z,60.92
2023-02-14T07:59:00.206Z,60.80
2023-02-14T08:01:27.201Z,60.34
2023-02-14T08:03:54.645Z,59.87
2023-02-14T08:06:21.898Z,59.34
2023-02-14T08:08:48.800Z,58.82
2023-02-14T08:11:38.921Z,58.13
2023-02-14T08:14:09.115Z,57.63
2023-02-14T08:16:37.664Z,56.86
2023-02-14T08:19:04.996Z,56.16
2023-02-14T08:21:32.239Z,55.53
2023-02-14T08:23:59.315Z,55.78
2023-02-14T08:26:26.456Z,55.97
2023-02-14T08:28:53.931Z,55.46
2023-02-14T08:31:35.147Z,55.32
2023-02-14T08:34:04.884Z,54.84
2023-02-14T08:36:31.743Z,54.79
2023-02-14T08:38:58.589Z,54.87
2023-02-14T08:41:26.807Z,54.70
2023-02-14T08:43:53.713Z,54.14
2023-02-14T08:46:20.624Z,54.12
2023-02-14T08:48:49.438Z,54.21
2023-02-14T08:51:16.961Z,54.30
2023-02-14T08:53:43.950Z,54.63
2023-02-14T08:56:13.619Z,54.20
2023-02-14T08:58:41.042Z,53.94
2023-02-14T09:01:12.367Z,53.88
2023-02-14T09:03:39.675Z,54.23
2023-02-14T09:06:07.898Z,54.54
2023-02-14T09:08:36.190Z,54.78
2023-02-14T09:11:08.146Z,54.68
2023-02-14T09:13:35.026Z,54.61
2023-02-14T09:16:05.810Z,54.83
2023-02-14T09:18:33.833Z,54.66
2023-02-14T09:21:01.829Z,54.67
2023-02-14T09:23:29.064Z,54.55
2023-02-14T09:26:04.303Z,54.51
2023-02-14T09:28:34.312Z,54.42
2023-02-14T09:31:18.713Z,54.43
2023-02-14T09:33:46.641Z,54.24
2023-02-14T09:36:14.162Z,54.13
2023-02-14T09:38:41.517Z,53.24
2023-02-14T09:41:09.603Z,52.82
2023-02-14T09:44:01.145Z,52.92
2023-02-14T09:46:29.125Z,52.81
2023-02-14T09:48:55.971Z,52.88
2023-02-14T09:51:25.109Z,53.03
2023-02-14T09:54:10.744Z,53.23
2023-02-14T09:56:52.228Z,53.01
2023-02-14T09:59:41.511Z,52.94
2023-02-14T10:02:43.601Z,52.92
2023-02-14T10:05:21.508Z,53.04
2023-02-14T10:08:14.386Z,53.08
2023-02-14T10:10:46.353Z,53.13
2023-02-14T10:13:17.875Z,53.15
2023-02-14T10:15:46.398Z,53.06
2023-02-14T10:18:17.813Z,52.96
2023-02-14T10:20:47.368Z,52.53
2023-02-14T10:23:37.444Z,52.06
2023-02-14T10:26:11.940Z,51.96
2023-02-14T10:28:45.686Z,51.98
2023-02-14T10:31:34.659Z,51.96
2023-02-14T10:34:06.615Z,51.42
2023-02-14T10:36:42.476Z,51.17
2023-02-14T10:39:47.446Z,51.13
2023-02-14T10:42:32.941Z,50.95
2023-02-14T10:45:25.885Z,50.69
2023-02-14T10:47:59.230Z,50.60
2023-02-14T10:50:28.821Z,50.80
2023-02-14T10:53:18.531Z,50.75
2023-02-14T10:56:09.855Z,50.36
2023-02-14T10:58:38.043Z,49.14
2023-02-14T11:01:10.622Z,48.69
2023-02-14T11:03:38.965Z,48.96
2023-02-14T11:06:09.212Z,48.94
2023-02-14T11:08:38.024Z,48.71
2023-02-14T11:11:07.873Z,48.46
2023-02-14T11:13:36.464Z,48.22
2023-02-14T11:16:10.941Z,48.03
2023-02-14T11:18:39.541Z,47.68
2023-02-14T11:21:14.411Z,47.41
2023-02-14T11:23:46.340Z,46.55
2023-02-14T11:26:21.247Z,46.29
2023-02-14T11:28:53.026Z,45.81
2023-02-14T11:31:31.215Z,44.65
2023-02-14T11:33:58.678Z,44.22
2023-02-14T11:36:25.609Z,44.74
2023-02-14T11:39:07.730Z,45.17
2023-02-14T11:41:52.543Z,45.11
2023-02-14T11:44:22.959Z,44.74
2023-02-14T11:46:53.424Z,44.60
2023-02-14T11:49:34.495Z,44.90
2023-02-14T11:52:10.291Z,44.71
2023-02-14T11:54:39.886Z,44.77
2023-02-14T11:57:23.550Z,45.20
2023-02-14T11:59:52.806Z,45.55
2023-02-14T12:02:35.867Z,45.61
2023-02-14T12:05:15.716Z,45.55
2023-02-14T12:07:43.777Z,45.64
2023-02-14T12:10:16.894Z,45.67
2023-02-14T12:12:55.877Z,45.81
2023-02-14T12:15:42.779Z,46.11
2023-02-14T12:18:24.743Z,46.48
2023-02-14T12:21:06.532Z,46.60
2023-02-14T12:23:40.143Z,46.41
2023-02-14T12:26:27.774Z,46.47
2023-02-14T12:29:29.472Z,46.71
2023-02-14T12:32:02.005Z,46.83
2023-02-14T12:34:29.607Z,46.90
2023-02-14T12:37:05.368Z,46.89
2023-02-14T12:39:55.598Z,46.93
2023-02-14T12:42:57.736Z,47.18
2023-02-14T12:45:43.126Z,47.39
2023-02-14T12:48:18.803Z,47.84
2023-02-14T12:51:06.688Z,48.17
2023-02-14T12:54:04.805Z,48.18
2023-02-14T12:56:47.850Z,48.33
2023-02-14T12:59:33.506Z,47.91
2023-02-14T13:02:22.358Z,47.99
2023-02-14T13:04:58.559Z,48.03
2023-02-14T13:07:28.473Z,48.28
2023-02-14T13:10:25.290Z,48.42
2023-02-14T13:13:02.656Z,48.47
2023-02-14T13:15:46.096Z,48.52
2023-02-14T13:18:31.241Z,48.58
2023-02-14T13:20:59.758Z,48.30
2023-02-14T13:23:40.938Z,47.97
2023-02-14T13:26:17.274Z,47.37
2023-02-14T13:28:49.638Z,47.33
2023-02-14T13:31:17.858Z,47.29
2023-02-14T13:34:12.602Z,47.15
2023-02-14T13:36:40.358Z,47.34
2023-02-14T13:39:09.672Z,47.34
2023-02-14T13:41:37.591Z,47.21
2023-02-14T13:44:07.536Z,47.07
2023-02-14T13:46:34.745Z,46.77
2023-02-14T13:49:27.859Z,46.94
2023-02-14T13:52:00.697Z,46.89
2023-02-14T13:54:46.891Z,46.66
2023-02-14T13:57:33.401Z,46.42
2023-02-14T14:00:18.508Z,46.37
2023-02-14T14:02:55.070Z,46.53
2023-02-14T14:05:37.706Z,46.37
2023-02-14T14:08:20.147Z,46.40
2023-02-14T14:10:52.809Z,46.22
2023-02-14T14:13:38.808Z,45.93
2023-02-14T14:16:27.493Z,45.89
2023-02-14T14:19:04.710Z,45.99
2023-02-14T14:21:32.377Z,46.24
2023-02-14T14:24:24.428Z,46.24
2023-02-14T14:26:55.976Z,46.42
2023-02-14T14:29:35.531Z,46.49
2023-02-14T14:32:21.311Z,46.65
2023-02-14T14:34:55.927Z,46.79
2023-02-14T14:37:29.095Z,46.94
2023-02-14T14:40:00.966Z,46.86
2023-02-14T14:42:30.221Z,46.70
2023-02-14T14:45:05.549Z,46.75
2023-02-14T14:47:54.545Z,46.81
2023-02-14T14:50:28.751Z,47.04
2023-02-14T14:53:04.160Z,47.17
2023-02-14T14:55:36.953Z,47.05
2023-02-14T14:58:06.314Z,47.22
2023-02-14T15:00:34.827Z,47.21
2023-02-14T15:03:05.066Z,46.69
2023-02-14T15:05:39.454Z,46.27
2023-02-14T15:08:27.340Z,45.86
2023-02-14T15:11:06.834Z,45.89
2023-02-14T15:13:48.944Z,45.90
2023-02-14T15:16:18.931Z,45.96
2023-02-14T15:18:47.813Z,45.88
2023-02-14T15:21:15.949Z,46.04
2023-02-14T15:23:44.738Z,46.07
2023-02-14T15:26:21.952Z,46.20
2023-02-14T15:29:01.733Z,46.47
2023-02-14T15:31:47.663Z,46.53
2023-02-14T15:34:14.888Z,46.88
2023-02-14T15:36:46.166Z,47.00
2023-02-14T15:39:13.062Z,47.27
2023-02-14T15:41:45.918Z,47.33
2023-02-14T15:44:23.410Z,47.54
2023-02-14T15:46:59.906Z,47.77
2023-02-14T15:49:35.572Z,47.81
2023-02-14T15:52:04.402Z,48.11
2023-02-14T15:54:39.007Z,48.14
2023-02-14T15:57:07.275Z,48.33
2023-02-14T15:59:34.643Z,48.64
2023-02-14T16:02:06.916Z,48.66
2023-02-14T16:04:33.837Z,48.68
2023-02-14T16:07:27.441Z,48.90
2023-02-14T16:10:16.517Z,49.01
2023-02-14T16:12:44.424Z,49.16
2023-02-14T16:15:14.955Z,49.18
2023-02-14T16:17:43.556Z,49.13
2023-02-14T16:20:24.038Z,49.37
2023-02-14T16:22:51.862Z,49.35
2023-02-14T16:25:20.413Z,49.39
2023-02-14T16:27:47.353Z,49.43
2023-02-14T16:30:19.093Z,49.47
2023-02-14T16:32:50.217Z,49.42
2023-02-14T16:35:18.217Z,49.42
2023-02-14T16:37:47.118Z,49.68
2023-02-14T16:40:14.939Z,49.80
2023-02-14T16:42:41.796Z,49.87
2023-02-14T16:45:15.522Z,50.11
2023-02-14T16:47:42.770Z,50.23
2023-02-14T16:50:10.545Z,50.52
2023-02-14T16:52:37.680Z,50.51
2023-02-14T16:55:06.358Z,50.68
2023-02-14T16:57:39.287Z,50.62
2023-02-14T17:00:07.289Z,50.48
2023-02-14T17:02:34.389Z,50.53
2023-02-14T17:05:01.363Z,50.58
2023-02-14T17:07:29.021Z,50.55
2023-02-14T17:09:58.004Z,50.32
2023-02-14T17:12:28.256Z,50.42
2023-02-14T17:14:59.852Z,50.51
2023-02-14T17:17:26.770Z,50.72
2023-02-14T17:19:53.590Z,50.89
2023-02-14T17:22:20.342Z,51.00
2023-02-14T17:24:47.112Z,51.08
2023-02-14T17:27:14.234Z,51.21
2023-02-14T17:29:41.375Z,51.41
2023-02-14T17:32:13.144Z,51.58
2023-02-14T17:34:40.532Z,51.66
2023-02-14T17:37:07.342Z,51.74
2023-02-14T17:39:34.447Z,51.86
2023-02-14T17:42:01.290Z,51.95
2023-02-14T17:44:33.909Z,52.11
2023-02-14T17:47:05.236Z,52.39
2023-02-14T17:49:34.301Z,52.69
2023-02-14T17:52:01.242Z,52.81
2023-02-14T17:54:28.467Z,52.98
2023-02-14T17:56:55.752Z,53.18
2023-02-14T17:59:23.783Z,53.24
2023-02-14T18:01:52.189Z,53.65
2023-02-14T18:04:19.058Z,54.04
2023-02-14T18:06:45.871Z,54.27
2023-02-14T18:09:13.661Z,54.25
2023-02-14T18:11:41.783Z,54.41
2023-02-14T18:14:11.192Z,54.40
2023-02-14T18:16:38.631Z,54.55
2023-02-14T18:19:05.979Z,54.63
2023-02-14T18:21:35.222Z,54.50
2023-02-14T18:24:04.187Z,54.57
2023-02-14T18:26:32.844Z,54.46
2023-02-14T18:29:00.633Z,54.35
2023-02-14T18:31:27.552Z,54.29
2023-02-14T18:33:54.513Z,54.30
2023-02-14T18:36:23.839Z,54.24
2023-02-14T18:38:50.810Z,54.33
2023-02-14T18:41:19.158Z,54.21
2023-02-14T18:43:46.268Z,54.06
2023-02-14T18:46:22.133Z,54.00
2023-02-14T18:48:49.530Z,53.96
2023-02-14T18:51:27.660Z,53.85
2023-02-14T18:53:56.115Z,53.88
2023-02-14T18:56:25.351Z,53.69
2023-02-14T18:58:57.498Z,53.69
2023-02-14T19:01:30.074Z,53.52
2023-02-14T19:03:59.293Z,53.50
2023-02-14T19:06:29.066Z,53.55
2023-02-14T19:08:56.513Z,53.51
2023-02-14T19:11:31.182Z,53.44
2023-02-14T19:13:59.199Z,53.35
2023-02-14T19:16:31.222Z,53.38
2023-02-14T19:18:59.110Z,53.34
2023-02-14T19:21:27.608Z,53.29
2023-02-14T19:23:58.158Z,53.40
2023-02-14T19:26:38.335Z,53.39
2023-02-14T19:29:10.786Z,53.23
2023-02-14T19:31:40.012Z,53.20
2023-02-14T19:34:07.949Z,53.25
2023-02-14T19:36:37.046Z,53.01
2023-02-14T19:39:04.070Z,53.11
2023-02-14T19:41:33.796Z,53.00
2023-02-14T19:44:04.240Z,53.08
2023-02-14T19:46:31.331Z,52.88
2023-02-14T19:48:58.630Z,52.90
2023-02-14T19:51:27.589Z,52.66
2023-02-14T19:53:55.208Z,52.62
2023-02-14T19:56:26.155Z,52.53
2023-02-14T19:58:53.260Z,52.50
2023-02-14T20:01:29.435Z,52.51
2023-02-14T20:03:56.768Z,52.41
2023-02-14T20:06:24.830Z,52.38
2023-02-14T20:08:52.279Z,52.30
2023-02-14T20:11:33.481Z,51.94
2023-02-14T20:14:01.178Z,51.97
2023-02-14T20:16:32.682Z,51.74
2023-02-14T20:19:01.287Z,51.55
2023-02-14T20:21:28.365Z,51.61
2023-02-14T20:24:00.449Z,51.57
2023-02-14T20:26:27.788Z,51.57
2023-02-14T20:28:54.966Z,51.53
2023-02-14T20:31:21.932Z,51.29
2023-02-14T20:33:52.501Z,51.37
2023-02-14T20:36:19.785Z,51.37
2023-02-14T20:38:46.891Z,51.20
2023-02-14T20:41:15.937Z,51.29
2023-02-14T20:43:42.738Z,51.30
2023-02-14T20:46:09.966Z,51.41
2023-02-14T20:48:38.065Z,51.17
2023-02-14T20:51:12.102Z,51.16
2023-02-14T20:53:39.799Z,51.28
2023-02-14T20:56:07.109Z,51.20
2023-02-14T20:58:34.935Z,51.14
2023-02-14T21:01:15.749Z,50.84
2023-02-14T21:03:45.796Z,50.79
2023-02-14T21:06:14.450Z,50.90
2023-02-14T21:08:42.029Z,50.74
2023-02-14T21:11:10.791Z,50.66
2023-02-14T21:13:37.657Z,50.75
2023-02-14T21:16:09.252Z,50.66
2023-02-14T21:18:37.547Z,50.74
2023-02-14T21:21:15.484Z,50.80
2023-02-14T21:23:42.502Z,50.81
2023-02-14T21:26:09.559Z,51.07
2023-02-14T21:28:36.732Z,51.09
2023-02-14T21:31:04.786Z,50.97
2023-02-14T21:33:33.888Z,51.02
2023-02-14T21:36:08.107Z,51.20
2023-02-14T21:38:36.450Z,51.16
2023-02-14T21:41:14.295Z,51.18
2023-02-14T21:43:42.871Z,50.99
2023-02-14T21:46:15.060Z,51.01
2023-02-14T21:49:00.615Z,50.82
2023-02-14T21:51:28.593Z,50.62
2023-02-14T21:53:59.219Z,50.49
2023-02-14T21:56:26.132Z,50.37
2023-02-14T21:58:54.604Z,50.07
2023-02-14T22:01:23.529Z,49.86
2023-02-14T22:03:52.343Z,49.60
2023-02-14T22:06:19.367Z,49.63
2023-02-14T22:08:48.868Z,49.67
2023-02-14T22:11:16.751Z,49.54
2023-02-14T22:13:43.547Z,49.30
2023-02-14T22:16:12.311Z,49.03
2023-02-14T22:18:40.013Z,48.60
2023-02-14T22:21:13.519Z,48.63
2023-02-14T22:23:40.932Z,48.54
2023-02-14T22:26:16.988Z,48.38
2023-02-14T22:28:47.447Z,48.60
2023-02-14T22:31:15.677Z,48.86
2023-02-14T22:33:43.213Z,48.87
2023-02-14T22:36:10.154Z,49.06
2023-02-14T22:38:38.386Z,49.30
2023-02-14T22:41:10.499Z,49.50
2023-02-14T22:43:37.816Z,49.54
2023-02-14T22:46:07.992Z,49.58
2023-02-14T22:48:35.698Z,49.75
2023-02-14T22:51:11.912Z,49.71
2023-02-14T22:53:39.103Z,49.58
2023-02-14T22:56:14.854Z,49.59
2023-02-14T22:58:42.223Z,49.71
2023-02-14T23:01:14.145Z,49.59
2023-02-14T23:03:41.808Z,49.67
2023-02-14T23:06:08.690Z,49.68
2023-02-14T23:08:43.534Z,49.78
2023-02-14T23:11:15.294Z,49.74
2023-02-14T23:14:03.016Z,49.71
2023-02-14T23:16:50.586Z,49.87
2023-02-14T23:19:43.040Z,49.70
2023-02-14T23:22:15.624Z,49.65
2023-02-14T23:24:42.585Z,49.69
2023-02-14T23:27:09.453Z,49.74
2023-02-14T23:29:37.217Z,49.71
2023-02-14T23:32:04.797Z,49.75
2023-02-14T23:34:37.614Z,49.83
2023-02-14T23:37:04.818Z,49.89
2023-02-14T23:39:35.229Z,49.94
2023-02-14T23:42:03.342Z,50.01
2023-02-14T23:44:30.418Z,50.02
2023-02-14T23:46:59.983Z,49.92
2023-02-14T23:49:27.286Z,49.80
2023-02-14T23:51:54.934Z,49.91
2023-02-14T23:54:22.075Z,50.00
2023-02-14T23:56:49.726Z,49.74
2023-02-14T23:59:16.613Z,49.81
